sensor_id;sensor_type;location;lat;lon;timestamp;pressure;altitude;pressure_sealevel;temperature;humidity
25650;BME280;13505;45.196;5.696;2023-12-29T05:32:32;99844.75;;;6.67;98.64
25650;BME280;13505;45.196;5.696;2023-12-29T05:37:22;99847.38;;;6.67;98.06
25650;BME280;13505;45.196;5.696;2023-12-29T05:42:12;99852.66;;;6.65;99.92
25650;BME280;13505;45.196;5.696;2023-12-29T05:47:04;99856.97;;;6.68;97.55
25650;BME280;13505;45.196;5.696;2023-12-29T05:51:55;99864.09;;;6.61;100.00
25650;BME280;13505;45.196;5.696;2023-12-29T05:57:05;99875.69;;;6.49;100.00
25650;BME280;13505;45.196;5.696;2023-12-29T06:01:56;99870.53;;;6.43;100.00
25650;BME280;13505;45.196;5.696;2023-12-29T06:06:46;99878.91;;;6.64;100.00
25650;BME280;13505;45.196;5.696;2023-12-29T06:11:37;99874.63;;;6.58;100.00
25650;BME280;13505;45.196;5.696;2023-12-29T06:16:27;99882.19;;;6.75;100.00
25650;BME280;13505;45.196;5.696;2023-12-29T06:21:19;99883.09;;;6.73;98.33
25650;BME280;13505;45.196;5.696;2023-12-29T06:26:19;99885.22;;;6.52;100.00
25650;BME280;13505;45.196;5.696;2023-12-29T06:31:10;99897.34;;;6.57;100.00
25650;BME280;13505;45.196;5.696;2023-12-29T06:36:00;99892.06;;;6.61;100.00
25650;BME280;13505;45.196;5.696;2023-12-29T06:40:51;99888.69;;;6.54;100.00
25650;BME280;13505;45.196;5.696;2023-12-29T06:45:41;99886.75;;;6.64;100.00
25650;BME280;13505;45.196;5.696;2023-12-29T06:50:31;99897.09;;;6.73;100.00
25650;BME280;13505;45.196;5.696;2023-12-29T06:55:22;99897.84;;;6.78;100.00
25650;BME280;13505;45.196;5.696;2023-12-29T07:00:12;99898.91;;;6.68;100.00
25650;BME280;13505;45.196;5.696;2023-12-29T07:05:03;99904.19;;;6.66;100.00
25650;BME280;13505;45.196;5.696;2023-12-29T07:09:54;99901.38;;;6.77;100.00
25650;BME280;13505;45.196;5.696;2023-12-29T07:14:44;99901.34;;;6.79;100.00
25650;BME280;13505;45.196;5.696;2023-12-29T07:19:34;99903.97;;;6.79;100.00
25650;BME280;13505;45.196;5.696;2023-12-29T07:24:26;99893.78;;;6.62;100.00
25650;BME280;13505;45.196;5.696;2023-12-29T07:29:38;99897.09;;;6.73;100.00
25650;BME280;13505;45.196;5.696;2023-12-29T07:35:09;99896.28;;;6.69;100.00
25650;BME280;13505;45.196;5.696;2023-12-29T07:40:00;99899.06;;;6.60;100.00
25650;BME280;13505;45.196;5.696;2023-12-29T07:44:50;99899.81;;;6.67;100.00
25650;BME280;13505;45.196;5.696;2023-12-29T07:49:41;99906.78;;;6.68;100.00
25650;BME280;13505;45.196;5.696;2023-12-29T07:54:32;99900.63;;;6.69;100.00
25650;BME280;13505;45.196;5.696;2023-12-29T07:59:23;99901.44;;;6.74;100.00
25650;BME280;13505;45.196;5.696;2023-12-29T08:04:13;99909.16;;;6.32;100.00
25650;BME280;13505;45.196;5.696;2023-12-29T08:09:03;99895.75;;;6.50;100.00
25650;BME280;13505;45.196;5.696;2023-12-29T08:13:54;99907.97;;;6.51;100.00
25650;BME280;13505;45.196;5.696;2023-12-29T08:18:46;99906.09;;;6.56;100.00
25650;BME280;13505;45.196;5.696;2023-12-29T08:23:37;99914.47;;;6.79;100.00
25650;BME280;13505;45.196;5.696;2023-12-29T08:28:27;99910.38;;;6.62;100.00
25650;BME280;13505;45.196;5.696;2023-12-29T08:33:18;99904.03;;;6.76;100.00
25650;BME280;13505;45.196;5.696;2023-12-29T08:38:08;99913.41;;;6.88;100.00
25650;BME280;13505;45.196;5.696;2023-12-29T08:43:18;99912.59;;;6.86;100.00
25650;BME280;13505;45.196;5.696;2023-12-29T08:48:12;99918.97;;;7.16;100.00
25650;BME280;13505;45.196;5.696;2023-12-29T08:53:06;99914.22;;;6.91;100.00
25650;BME280;13505;45.196;5.696;2023-12-29T08:57:58;99915.75;;;7.03;100.00
25650;BME280;13505;45.196;5.696;2023-12-29T09:02:49;99908.78;;;7.02;100.00
25650;BME280;13505;45.196;5.696;2023-12-29T09:07:39;99919.53;;;7.32;100.00
25650;BME280;13505;45.196;5.696;2023-12-29T09:12:30;99927.56;;;7.26;100.00
25650;BME280;13505;45.196;5.696;2023-12-29T09:17:20;99916.75;;;6.96;100.00
25650;BME280;13505;45.196;5.696;2023-12-29T09:22:10;99912.81;;;7.19;100.00
25650;BME280;13505;45.196;5.696;2023-12-29T09:27:01;99920.03;;;7.09;100.00
25650;BME280;13505;45.196;5.696;2023-12-29T09:31:51;99912.19;;;7.50;100.00
25650;BME280;13505;45.196;5.696;2023-12-29T09:36:41;99909.91;;;7.74;100.00
25650;BME280;13505;45.196;5.696;2023-12-29T09:41:33;99922.47;;;7.61;100.00
25650;BME280;13505;45.196;5.696;2023-12-29T09:46:28;99919.75;;;7.64;100.00
25650;BME280;13505;45.196;5.696;2023-12-29T09:51:22;99923.72;;;7.84;100.00
25650;BME280;13505;45.196;5.696;2023-12-29T09:56:15;99916.94;;;8.11;100.00
25650;BME280;13505;45.196;5.696;2023-12-29T10:01:06;99913.13;;;8.24;100.00
25650;BME280;13505;45.196;5.696;2023-12-29T10:06:00;99914.94;;;8.21;100.00
25650;BME280;13505;45.196;5.696;2023-12-29T10:10:51;99911.56;;;8.54;98.61
25650;BME280;13505;45.196;5.696;2023-12-29T10:25:47;99892.97;;;9.25;94.19
25650;BME280;13505;45.196;5.696;2023-12-29T10:30:38;99875.00;;;9.39;91.63
25650;BME280;13505;45.196;5.696;2023-12-29T10:35:30;99875.34;;;9.57;89.62
25650;BME280;13505;45.196;5.696;2023-12-29T10:40:21;99864.31;;;9.44;89.58
25650;BME280;13505;45.196;5.696;2023-12-29T10:45:11;99851.59;;;9.30;88.97
25650;BME280;13505;45.196;5.696;2023-12-29T10:50:02;99842.94;;;9.55;89.09
25650;BME280;13505;45.196;5.696;2023-12-29T10:55:04;99833.63;;;10.00;88.29
25650;BME280;13505;45.196;5.696;2023-12-29T10:59:55;99831.03;;;9.98;89.41
25650;BME280;13505;45.196;5.696;2023-12-29T11:04:50;99819.72;;;9.95;90.05
25650;BME280;13505;45.196;5.696;2023-12-29T11:09:41;99809.91;;;10.00;91.27
25650;BME280;13505;45.196;5.696;2023-12-29T11:14:32;99799.59;;;9.65;91.83
25650;BME280;13505;45.196;5.696;2023-12-29T11:19:22;99788.13;;;9.66;93.33
25650;BME280;13505;45.196;5.696;2023-12-29T11:24:13;99793.28;;;9.42;95.10
25650;BME280;13505;45.196;5.696;2023-12-29T11:29:03;99777.66;;;9.91;92.27
25650;BME280;13505;45.196;5.696;2023-12-29T11:34:01;99763.59;;;9.91;93.93
25650;BME280;13505;45.196;5.696;2023-12-29T11:39:10;99761.03;;;10.42;89.09
25650;BME280;13505;45.196;5.696;2023-12-29T11:44:04;99758.16;;;10.23;88.00
25650;BME280;13505;45.196;5.696;2023-12-29T11:48:56;99751.63;;;10.33;87.17
25650;BME280;13505;45.196;5.696;2023-12-29T11:53:47;99733.94;;;11.08;86.04
25650;BME280;13505;45.196;5.696;2023-12-29T11:58:37;99713.50;;;11.13;83.12
25650;BME280;13505;45.196;5.696;2023-12-29T12:03:29;99703.25;;;10.59;85.09
25650;BME280;13505;45.196;5.696;2023-12-29T12:08:35;99692.97;;;10.98;83.12
25650;BME280;13505;45.196;5.696;2023-12-29T12:13:43;99691.00;;;11.25;83.76
25650;BME280;13505;45.196;5.696;2023-12-29T12:18:34;99681.81;;;11.56;81.29
25650;BME280;13505;45.196;5.696;2023-12-29T12:23:25;99667.00;;;11.75;80.97
25650;BME280;13505;45.196;5.696;2023-12-29T12:28:20;99662.53;;;11.75;80.02
25650;BME280;13505;45.196;5.696;2023-12-29T12:33:12;99646.88;;;11.91;80.54
25650;BME280;13505;45.196;5.696;2023-12-29T12:38:14;99642.81;;;11.63;79.24
25650;BME280;13505;45.196;5.696;2023-12-29T12:43:07;99632.00;;;11.89;79.47
25650;BME280;13505;45.196;5.696;2023-12-29T12:48:24;99625.00;;;12.08;78.86
25650;BME280;13505;45.196;5.696;2023-12-29T12:53:19;99616.44;;;12.03;76.79
25650;BME280;13505;45.196;5.696;2023-12-29T12:58:13;99619.25;;;11.98;74.71
25650;BME280;13505;45.196;5.696;2023-12-29T13:03:05;99621.22;;;11.93;75.91
25650;BME280;13505;45.196;5.696;2023-12-29T13:07:55;99621.44;;;12.09;76.62
25650;BME280;13505;45.196;5.696;2023-12-29T13:12:52;99616.81;;;12.14;75.37
25650;BME280;13505;45.196;5.696;2023-12-29T13:17:50;99619.03;;;12.24;72.67
25650;BME280;13505;45.196;5.696;2023-12-29T13:22:41;99607.09;;;12.34;73.75
25650;BME280;13505;45.196;5.696;2023-12-29T13:27:31;99608.31;;;12.08;73.72
25650;BME280;13505;45.196;5.696;2023-12-29T13:32:23;99613.78;;;11.82;74.15
25650;BME280;13505;45.196;5.696;2023-12-29T13:37:29;99619.13;;;11.60;75.65
25650;BME280;13505;45.196;5.696;2023-12-29T13:42:22;99620.13;;;11.57;75.48
25650;BME280;13505;45.196;5.696;2023-12-29T13:47:15;99621.47;;;11.47;75.66
25650;BME280;13505;45.196;5.696;2023-12-29T13:52:07;99603.63;;;11.52;76.51
25650;BME280;13505;45.196;5.696;2023-12-29T13:56:57;99588.84;;;11.69;77.25
25650;BME280;13505;45.196;5.696;2023-12-29T14:01:48;99587.63;;;11.76;75.72
25650;BME280;13505;45.196;5.696;2023-12-29T14:06:59;99586.38;;;11.85;75.70
25650;BME280;13505;45.196;5.696;2023-12-29T14:11:51;99580.88;;;11.90;76.59
25650;BME280;13505;45.196;5.696;2023-12-29T14:16:42;99587.38;;;11.82;76.38
25650;BME280;13505;45.196;5.696;2023-12-29T14:21:33;99582.03;;;11.63;79.37
25650;BME280;13505;45.196;5.696;2023-12-29T14:26:24;99585.53;;;11.64;80.56
25650;BME280;13505;45.196;5.696;2023-12-29T14:31:14;99584.75;;;11.62;80.68
25650;BME280;13505;45.196;5.696;2023-12-29T14:36:05;99588.22;;;11.62;80.59
25650;BME280;13505;45.196;5.696;2023-12-29T14:40:55;99586.50;;;11.61;80.34
25650;BME280;13505;45.196;5.696;2023-12-29T14:45:45;99579.41;;;11.63;80.88
25650;BME280;13505;45.196;5.696;2023-12-29T14:50:36;99570.75;;;11.59;78.99
25650;BME280;13505;45.196;5.696;2023-12-29T14:55:26;99573.59;;;11.55;79.63
25650;BME280;13505;45.196;5.696;2023-12-29T15:00:17;99574.97;;;11.43;80.96
25650;BME280;13505;45.196;5.696;2023-12-29T15:05:07;99573.25;;;11.42;80.44
25650;BME280;13505;45.196;5.696;2023-12-29T15:09:59;99571.72;;;11.36;81.02
25650;BME280;13505;45.196;5.696;2023-12-29T15:14:49;99571.06;;;11.31;81.42
25650;BME280;13505;45.196;5.696;2023-12-29T15:19:39;99571.47;;;11.22;81.80
25650;BME280;13505;45.196;5.696;2023-12-29T15:24:30;99569.28;;;11.11;84.36
25650;BME280;13505;45.196;5.696;2023-12-29T15:29:20;99568.72;;;11.02;84.87
25650;BME280;13505;45.196;5.696;2023-12-29T15:34:11;99578.88;;;10.91;84.22
25650;BME280;13505;45.196;5.696;2023-12-29T15:39:01;99579.19;;;10.83;84.20
25650;BME280;13505;45.196;5.696;2023-12-29T15:43:54;99577.34;;;10.85;84.92
25650;BME280;13505;45.196;5.696;2023-12-29T15:48:45;99574.78;;;10.84;86.31
25650;BME280;13505;45.196;5.696;2023-12-29T15:53:35;99584.66;;;10.79;86.58
25650;BME280;13505;45.196;5.696;2023-12-29T15:58:26;99582.31;;;10.71;87.46
25650;BME280;13505;45.196;5.696;2023-12-29T16:03:16;99580.84;;;10.64;88.79
25650;BME280;13505;45.196;5.696;2023-12-29T16:08:06;99578.56;;;10.54;89.42
25650;BME280;13505;45.196;5.696;2023-12-29T16:12:57;99581.28;;;10.53;89.55
25650;BME280;13505;45.196;5.696;2023-12-29T16:17:47;99585.75;;;10.51;90.13
25650;BME280;13505;45.196;5.696;2023-12-29T16:22:37;99585.88;;;10.47;89.96
25650;BME280;13505;45.196;5.696;2023-12-29T16:27:28;99590.44;;;10.66;88.96
25650;BME280;13505;45.196;5.696;2023-12-29T16:32:22;99592.09;;;10.69;88.42
25650;BME280;13505;45.196;5.696;2023-12-29T16:37:13;99585.28;;;10.63;88.28
25650;BME280;13505;45.196;5.696;2023-12-29T16:42:03;99583.56;;;10.62;88.82
25650;BME280;13505;45.196;5.696;2023-12-29T16:46:54;99582.88;;;10.57;89.44
25650;BME280;13505;45.196;5.696;2023-12-29T16:51:44;99587.66;;;10.47;90.04
25650;BME280;13505;45.196;5.696;2023-12-29T16:56:34;99594.19;;;10.37;91.29
25650;BME280;13505;45.196;5.696;2023-12-29T17:01:25;99599.19;;;10.44;90.56
25650;BME280;13505;45.196;5.696;2023-12-29T17:06:16;99599.31;;;10.41;91.70
25650;BME280;13505;45.196;5.696;2023-12-29T17:11:07;99604.53;;;10.17;93.10
25650;BME280;13505;45.196;5.696;2023-12-29T17:15:57;99599.72;;;10.05;95.38
25650;BME280;13505;45.196;5.696;2023-12-29T17:20:47;99605.78;;;10.07;94.28
25650;BME280;13505;45.196;5.696;2023-12-29T17:25:38;99606.25;;;9.95;96.64
25650;BME280;13505;45.196;5.696;2023-12-29T17:30:28;99618.00;;;9.86;99.23
25650;BME280;13505;45.196;5.696;2023-12-29T17:35:18;99614.59;;;9.82;99.09
25650;BME280;13505;45.196;5.696;2023-12-29T17:40:13;99618.31;;;9.76;99.39
25650;BME280;13505;45.196;5.696;2023-12-29T17:45:04;99620.16;;;9.74;99.65
25650;BME280;13505;45.196;5.696;2023-12-29T17:49:57;99630.06;;;9.68;100.00
25650;BME280;13505;45.196;5.696;2023-12-29T17:54:47;99631.81;;;9.67;100.00
25650;BME280;13505;45.196;5.696;2023-12-29T17:59:38;99637.13;;;9.66;100.00
25650;BME280;13505;45.196;5.696;2023-12-29T18:04:28;99637.03;;;9.69;99.37
25650;BME280;13505;45.196;5.696;2023-12-29T18:09:18;99639.22;;;9.56;100.00
25650;BME280;13505;45.196;5.696;2023-12-29T18:14:09;99651.53;;;9.55;99.66
25650;BME280;13505;45.196;5.696;2023-12-29T18:19:00;99647.00;;;9.59;99.68
25650;BME280;13505;45.196;5.696;2023-12-29T18:23:51;99639.31;;;9.27;100.00
25650;BME280;13505;45.196;5.696;2023-12-29T18:28:41;99660.94;;;9.62;99.65
25650;BME280;13505;45.196;5.696;2023-12-29T18:33:33;99655.91;;;9.56;98.11
25650;BME280;13505;45.196;5.696;2023-12-29T18:38:26;99664.97;;;9.73;98.33
25650;BME280;13505;45.196;5.696;2023-12-29T18:43:16;99671.97;;;9.74;99.22
25650;BME280;13505;45.196;5.696;2023-12-29T18:48:09;99673.66;;;9.76;100.00
25650;BME280;13505;45.196;5.696;2023-12-29T18:52:59;99669.69;;;9.38;100.00
25650;BME280;13505;45.196;5.696;2023-12-29T18:57:50;99667.59;;;9.47;100.00
25650;BME280;13505;45.196;5.696;2023-12-29T19:02:40;99665.94;;;9.70;97.57
25650;BME280;13505;45.196;5.696;2023-12-29T19:07:31;99678.38;;;9.67;98.26
25650;BME280;13505;45.196;5.696;2023-12-29T19:12:23;99665.78;;;9.75;97.64
25650;BME280;13505;45.196;5.696;2023-12-29T19:17:14;99675.84;;;9.89;96.18
25650;BME280;13505;45.196;5.696;2023-12-29T19:22:05;99680.31;;;9.61;98.61
25650;BME280;13505;45.196;5.696;2023-12-29T19:26:55;99691.06;;;9.81;96.74
25650;BME280;13505;45.196;5.696;2023-12-29T19:31:46;99681.50;;;9.78;96.92
25650;BME280;13505;45.196;5.696;2023-12-29T19:36:36;99686.50;;;9.86;95.73
25650;BME280;13505;45.196;5.696;2023-12-29T19:41:32;99683.75;;;9.89;94.40
25650;BME280;13505;45.196;5.696;2023-12-29T19:46:24;99680.84;;;9.71;96.18
25650;BME280;13505;45.196;5.696;2023-12-29T19:51:17;99693.50;;;9.87;93.67
25650;BME280;13505;45.196;5.696;2023-12-29T19:56:07;99701.34;;;9.88;92.72
25650;BME280;13505;45.196;5.696;2023-12-29T20:00:58;99680.03;;;9.69;95.68
25650;BME280;13505;45.196;5.696;2023-12-29T20:06:19;99692.81;;;9.55;96.16
25650;BME280;13505;45.196;5.696;2023-12-29T20:11:16;99701.06;;;9.44;96.72
25650;BME280;13505;45.196;5.696;2023-12-29T20:16:07;99694.38;;;9.33;98.39
25650;BME280;13505;45.196;5.696;2023-12-29T20:20:58;99690.25;;;9.26;99.87
25650;BME280;13505;45.196;5.696;2023-12-29T20:25:48;99683.47;;;9.17;99.74
25650;BME280;13505;45.196;5.696;2023-12-29T20:30:39;99689.94;;;9.07;99.32
25650;BME280;13505;45.196;5.696;2023-12-29T20:35:30;99699.81;;;9.00;100.00
25650;BME280;13505;45.196;5.696;2023-12-29T20:40:20;99704.41;;;8.93;100.00
25650;BME280;13505;45.196;5.696;2023-12-29T20:45:11;99690.72;;;8.82;100.00
25650;BME280;13505;45.196;5.696;2023-12-29T20:50:02;99697.38;;;8.64;100.00
25650;BME280;13505;45.196;5.696;2023-12-29T20:54:52;99704.66;;;8.84;100.00
25650;BME280;13505;45.196;5.696;2023-12-29T20:59:42;99699.34;;;8.57;100.00
25650;BME280;13505;45.196;5.696;2023-12-29T21:04:33;99699.22;;;8.62;100.00
25650;BME280;13505;45.196;5.696;2023-12-29T21:09:23;99709.19;;;8.49;100.00
25650;BME280;13505;45.196;5.696;2023-12-29T21:14:14;99708.66;;;8.36;100.00
25650;BME280;13505;45.196;5.696;2023-12-29T21:19:04;99689.41;;;8.35;100.00
25650;BME280;13505;45.196;5.696;2023-12-29T21:23:55;99699.16;;;8.32;100.00
25650;BME280;13505;45.196;5.696;2023-12-29T21:28:46;99700.75;;;8.37;100.00
25650;BME280;13505;45.196;5.696;2023-12-29T21:33:37;99693.09;;;8.30;100.00
25650;BME280;13505;45.196;5.696;2023-12-29T21:38:27;99690.59;;;8.25;100.00
25650;BME280;13505;45.196;5.696;2023-12-29T21:43:18;99691.50;;;8.24;100.00
25650;BME280;13505;45.196;5.696;2023-12-29T21:48:08;99687.72;;;8.33;100.00
25650;BME280;13505;45.196;5.696;2023-12-29T21:52:59;99694.84;;;8.29;100.00
25650;BME280;13505;45.196;5.696;2023-12-29T21:57:49;99688.09;;;8.20;100.00
25650;BME280;13505;45.196;5.696;2023-12-29T22:02:40;99683.50;;;8.27;100.00
25650;BME280;13505;45.196;5.696;2023-12-29T22:07:31;99680.00;;;8.27;100.00
25650;BME280;13505;45.196;5.696;2023-12-29T22:12:21;99690.38;;;8.33;100.00
25650;BME280;13505;45.196;5.696;2023-12-29T22:17:12;99704.28;;;8.36;100.00
25650;BME280;13505;45.196;5.696;2023-12-29T22:22:02;99693.78;;;8.36;100.00
25650;BME280;13505;45.196;5.696;2023-12-29T22:26:53;99703.28;;;8.41;100.00
25650;BME280;13505;45.196;5.696;2023-12-29T22:31:45;99694.41;;;8.45;100.00
25650;BME280;13505;45.196;5.696;2023-12-29T22:36:35;99706.66;;;8.46;100.00
25650;BME280;13505;45.196;5.696;2023-12-29T22:41:26;99700.66;;;8.41;100.00
25650;BME280;13505;45.196;5.696;2023-12-29T22:46:18;99707.50;;;8.46;100.00
25650;BME280;13505;45.196;5.696;2023-12-29T22:51:11;99710.25;;;8.42;100.00
25650;BME280;13505;45.196;5.696;2023-12-29T22:56:02;99699.84;;;8.38;100.00
